sensor_id;sensor_type;location;lat;lon;timestamp;P1;durP1;ratioP1;P2;durP2;ratioP2
10715;SDS011;5409;42.620;23.316;2022-12-26T00:00:51;3.15;;;1.38;;
10715;SDS011;5409;42.620;23.316;2022-12-26T00:03:18;1.80;;;1.67;;
10715;SDS011;5409;42.620;23.316;2022-12-26T00:05:46;3.42;;;1.80;;
10715;SDS011;5409;42.620;23.316;2022-12-26T00:08:13;1.95;;;1.75;;
10715;SDS011;5409;42.620;23.316;2022-12-26T00:10:40;2.25;;;1.58;;
10715;SDS011;5409;42.620;23.316;2022-12-26T00:13:07;3.03;;;1.20;;
10715;SDS011;5409;42.620;23.316;2022-12-26T00:15:34;1.83;;;1.15;;
10715;SDS011;5409;42.620;23.316;2022-12-26T00:18:01;1.63;;;1.30;;
10715;SDS011;5409;42.620;23.316;2022-12-26T00:20:27;1.30;;;1.20;;
10715;SDS011;5409;42.620;23.316;2022-12-26T00:22:55;3.15;;;1.40;;
10715;SDS011;5409;42.620;23.316;2022-12-26T00:25:22;2.00;;;1.20;;
10715;SDS011;5409;42.620;23.316;2022-12-26T00:27:49;1.92;;;1.33;;
10715;SDS011;5409;42.620;23.316;2022-12-26T00:30:16;1.70;;;1.35;;
10715;SDS011;5409;42.620;23.316;2022-12-26T00:32:43;1.23;;;1.13;;
10715;SDS011;5409;42.620;23.316;2022-12-26T00:35:10;1.77;;;1.40;;
10715;SDS011;5409;42.620;23.316;2022-12-26T00:37:37;3.92;;;1.30;;
10715;SDS011;5409;42.620;23.316;2022-12-26T00:40:05;1.50;;;1.00;;
10715;SDS011;5409;42.620;23.316;2022-12-26T00:42:33;2.63;;;1.50;;
10715;SDS011;5409;42.620;23.316;2022-12-26T00:45:00;2.53;;;1.20;;
10715;SDS011;5409;42.620;23.316;2022-12-26T00:47:27;1.20;;;0.90;;
10715;SDS011;5409;42.620;23.316;2022-12-26T00:49:54;1.73;;;1.23;;
10715;SDS011;5409;42.620;23.316;2022-12-26T00:52:20;2.00;;;1.15;;
10715;SDS011;5409;42.620;23.316;2022-12-26T00:54:47;0.93;;;0.93;;
10715;SDS011;5409;42.620;23.316;2022-12-26T00:57:15;2.45;;;1.20;;
10715;SDS011;5409;42.620;23.316;2022-12-26T00:59:42;1.02;;;1.00;;
10715;SDS011;5409;42.620;23.316;2022-12-26T01:02:09;1.33;;;1.00;;
10715;SDS011;5409;42.620;23.316;2022-12-26T01:04:50;1.67;;;1.42;;
10715;SDS011;5409;42.620;23.316;2022-12-26T01:07:16;2.60;;;1.20;;
10715;SDS011;5409;42.620;23.316;2022-12-26T01:09:43;0.90;;;0.90;;
10715;SDS011;5409;42.620;23.316;2022-12-26T01:12:10;1.00;;;0.90;;
10715;SDS011;5409;42.620;23.316;2022-12-26T01:14:38;1.60;;;1.23;;
10715;SDS011;5409;42.620;23.316;2022-12-26T01:17:05;3.38;;;1.30;;
10715;SDS011;5409;42.620;23.316;2022-12-26T01:19:32;2.65;;;1.60;;
10715;SDS011;5409;42.620;23.316;2022-12-26T01:21:59;1.60;;;1.50;;
10715;SDS011;5409;42.620;23.316;2022-12-26T01:24:25;1.67;;;1.50;;
10715;SDS011;5409;42.620;23.316;2022-12-26T01:26:52;3.53;;;1.42;;
10715;SDS011;5409;42.620;23.316;2022-12-26T01:29:19;1.75;;;1.50;;
10715;SDS011;5409;42.620;23.316;2022-12-26T01:31:47;1.20;;;1.10;;
10715;SDS011;5409;42.620;23.316;2022-12-26T01:34:14;1.55;;;1.20;;
10715;SDS011;5409;42.620;23.316;2022-12-26T01:36:41;3.63;;;1.80;;
10715;SDS011;5409;42.620;23.316;2022-12-26T01:39:08;1.08;;;1.00;;
10715;SDS011;5409;42.620;23.316;2022-12-26T01:41:35;1.45;;;1.33;;
10715;SDS011;5409;42.620;23.316;2022-12-26T01:44:03;1.67;;;1.35;;
10715;SDS011;5409;42.620;23.316;2022-12-26T01:46:32;1.75;;;1.25;;
10715;SDS011;5409;42.620;23.316;2022-12-26T01:49:06;1.65;;;1.40;;
10715;SDS011;5409;42.620;23.316;2022-12-26T01:51:41;1.88;;;1.55;;
10715;SDS011;5409;42.620;23.316;2022-12-26T01:54:12;4.20;;;2.28;;
10715;SDS011;5409;42.620;23.316;2022-12-26T01:56:40;2.67;;;2.00;;
10715;SDS011;5409;42.620;23.316;2022-12-26T01:59:10;2.42;;;2.05;;
10715;SDS011;5409;42.620;23.316;2022-12-26T02:01:40;2.13;;;1.85;;
10715;SDS011;5409;42.620;23.316;2022-12-26T02:04:12;1.90;;;1.70;;
10715;SDS011;5409;42.620;23.316;2022-12-26T02:07:00;1.85;;;1.70;;
10715;SDS011;5409;42.620;23.316;2022-12-26T02:09:29;2.63;;;1.70;;
10715;SDS011;5409;42.620;23.316;2022-12-26T02:11:57;5.50;;;1.88;;
10715;SDS011;5409;42.620;23.316;2022-12-26T02:14:27;2.15;;;1.95;;
10715;SDS011;5409;42.620;23.316;2022-12-26T02:16:54;2.28;;;1.98;;
10715;SDS011;5409;42.620;23.316;2022-12-26T02:19:25;2.47;;;1.80;;
10715;SDS011;5409;42.620;23.316;2022-12-26T02:30:57;3.38;;;1.48;;
10715;SDS011;5409;42.620;23.316;2022-12-26T02:33:36;1.88;;;1.52;;
10715;SDS011;5409;42.620;23.316;2022-12-26T02:36:24;2.70;;;1.65;;
10715;SDS011;5409;42.620;23.316;2022-12-26T02:39:18;1.75;;;1.45;;
10715;SDS011;5409;42.620;23.316;2022-12-26T02:41:54;2.90;;;1.35;;
10715;SDS011;5409;42.620;23.316;2022-12-26T02:44:28;0.93;;;0.93;;
10715;SDS011;5409;42.620;23.316;2022-12-26T02:47:23;1.35;;;1.23;;
10715;SDS011;5409;42.620;23.316;2022-12-26T02:50:00;1.30;;;1.20;;
10715;SDS011;5409;42.620;23.316;2022-12-26T02:52:55;1.45;;;1.33;;
10715;SDS011;5409;42.620;23.316;2022-12-26T02:55:48;1.65;;;1.08;;
10715;SDS011;5409;42.620;23.316;2022-12-26T02:58:37;2.47;;;1.63;;
10715;SDS011;5409;42.620;23.316;2022-12-26T03:01:29;1.38;;;1.17;;
10715;SDS011;5409;42.620;23.316;2022-12-26T03:04:23;1.52;;;0.80;;
10715;SDS011;5409;42.620;23.316;2022-12-26T03:07:12;1.48;;;1.20;;
10715;SDS011;5409;42.620;23.316;2022-12-26T03:10:14;1.40;;;1.00;;
10715;SDS011;5409;42.620;23.316;2022-12-26T03:13:02;4.25;;;1.23;;
10715;SDS011;5409;42.620;23.316;2022-12-26T03:15:38;1.65;;;1.45;;
10715;SDS011;5409;42.620;23.316;2022-12-26T03:18:25;1.73;;;1.48;;
10715;SDS011;5409;42.620;23.316;2022-12-26T03:20:55;6.07;;;1.90;;
10715;SDS011;5409;42.620;23.316;2022-12-26T03:23:22;1.70;;;1.40;;
10715;SDS011;5409;42.620;23.316;2022-12-26T03:25:51;1.77;;;1.65;;
10715;SDS011;5409;42.620;23.316;2022-12-26T03:28:38;1.85;;;1.58;;
10715;SDS011;5409;42.620;23.316;2022-12-26T03:31:08;1.90;;;1.40;;
10715;SDS011;5409;42.620;23.316;2022-12-26T03:33:36;1.40;;;1.30;;
10715;SDS011;5409;42.620;23.316;2022-12-26T03:36:30;2.22;;;1.60;;
10715;SDS011;5409;42.620;23.316;2022-12-26T03:39:08;1.48;;;1.38;;
10715;SDS011;5409;42.620;23.316;2022-12-26T03:41:46;3.05;;;2.08;;
10715;SDS011;5409;42.620;23.316;2022-12-26T03:44:40;1.23;;;1.13;;
10715;SDS011;5409;42.620;23.316;2022-12-26T03:47:33;3.45;;;1.60;;
10715;SDS011;5409;42.620;23.316;2022-12-26T03:50:21;2.90;;;1.40;;
10715;SDS011;5409;42.620;23.316;2022-12-26T03:53:19;2.08;;;1.30;;
10715;SDS011;5409;42.620;23.316;2022-12-26T03:56:07;1.50;;;1.40;;
10715;SDS011;5409;42.620;23.316;2022-12-26T03:58:56;6.10;;;1.38;;
10715;SDS011;5409;42.620;23.316;2022-12-26T04:01:55;1.75;;;0.98;;
10715;SDS011;5409;42.620;23.316;2022-12-26T04:04:44;3.03;;;1.48;;
10715;SDS011;5409;42.620;23.316;2022-12-26T04:07:30;2.88;;;1.60;;
10715;SDS011;5409;42.620;23.316;2022-12-26T04:10:20;3.92;;;1.10;;
10715;SDS011;5409;42.620;23.316;2022-12-26T04:13:10;2.15;;;1.30;;
10715;SDS011;5409;42.620;23.316;2022-12-26T04:16:01;4.03;;;1.75;;
10715;SDS011;5409;42.620;23.316;2022-12-26T04:19:05;2.85;;;1.85;;
10715;SDS011;5409;42.620;23.316;2022-12-26T04:21:52;1.85;;;1.40;;
10715;SDS011;5409;42.620;23.316;2022-12-26T04:24:43;5.13;;;1.77;;
10715;SDS011;5409;42.620;23.316;2022-12-26T04:27:33;3.30;;;1.80;;
10715;SDS011;5409;42.620;23.316;2022-12-26T04:30:17;1.65;;;1.42;;
10715;SDS011;5409;42.620;23.316;2022-12-26T04:33:03;2.58;;;1.60;;
10715;SDS011;5409;42.620;23.316;2022-12-26T04:35:53;3.10;;;1.77;;
10715;SDS011;5409;42.620;23.316;2022-12-26T04:38:45;3.80;;;1.98;;
10715;SDS011;5409;42.620;23.316;2022-12-26T04:41:33;2.83;;;1.25;;
10715;SDS011;5409;42.620;23.316;2022-12-26T04:44:20;0.82;;;0.82;;
10715;SDS011;5409;42.620;23.316;2022-12-26T04:46:49;1.42;;;1.10;;
10715;SDS011;5409;42.620;23.316;2022-12-26T04:49:18;1.83;;;1.42;;
10715;SDS011;5409;42.620;23.316;2022-12-26T04:52:03;1.75;;;1.10;;
10715;SDS011;5409;42.620;23.316;2022-12-26T04:54:32;2.42;;;1.20;;
10715;SDS011;5409;42.620;23.316;2022-12-26T04:56:59;1.48;;;1.10;;
10715;SDS011;5409;42.620;23.316;2022-12-26T04:59:27;2.22;;;1.00;;
10715;SDS011;5409;42.620;23.316;2022-12-26T05:01:54;1.00;;;0.93;;
10715;SDS011;5409;42.620;23.316;2022-12-26T05:04:38;0.90;;;0.88;;
10715;SDS011;5409;42.620;23.316;2022-12-26T05:07:22;1.00;;;1.00;;
10715;SDS011;5409;42.620;23.316;2022-12-26T05:10:09;1.85;;;1.10;;
10715;SDS011;5409;42.620;23.316;2022-12-26T05:12:41;1.27;;;1.10;;
10715;SDS011;5409;42.620;23.316;2022-12-26T05:15:09;1.67;;;1.45;;
10715;SDS011;5409;42.620;23.316;2022-12-26T05:17:37;3.25;;;0.90;;
10715;SDS011;5409;42.620;23.316;2022-12-26T05:20:21;1.45;;;1.35;;
10715;SDS011;5409;42.620;23.316;2022-12-26T05:23:06;1.00;;;0.98;;
10715;SDS011;5409;42.620;23.316;2022-12-26T05:25:58;1.30;;;1.17;;
10715;SDS011;5409;42.620;23.316;2022-12-26T05:28:43;1.15;;;1.10;;
10715;SDS011;5409;42.620;23.316;2022-12-26T05:31:11;1.13;;;0.80;;
10715;SDS011;5409;42.620;23.316;2022-12-26T05:33:40;1.10;;;1.10;;
10715;SDS011;5409;42.620;23.316;2022-12-26T05:36:25;1.35;;;1.17;;
10715;SDS011;5409;42.620;23.316;2022-12-26T05:38:55;5.00;;;1.25;;
10715;SDS011;5409;42.620;23.316;2022-12-26T05:41:22;1.20;;;1.10;;
10715;SDS011;5409;42.620;23.316;2022-12-26T05:43:48;3.10;;;1.30;;
10715;SDS011;5409;42.620;23.316;2022-12-26T05:46:17;1.42;;;1.33;;
10715;SDS011;5409;42.620;23.316;2022-12-26T05:48:44;1.30;;;1.13;;
10715;SDS011;5409;42.620;23.316;2022-12-26T05:51:10;1.30;;;1.20;;
10715;SDS011;5409;42.620;23.316;2022-12-26T05:53:37;1.60;;;1.10;;
10715;SDS011;5409;42.620;23.316;2022-12-26T05:56:05;2.15;;;0.88;;
10715;SDS011;5409;42.620;23.316;2022-12-26T05:58:33;0.90;;;0.90;;
10715;SDS011;5409;42.620;23.316;2022-12-26T06:01:07;2.20;;;1.80;;
10715;SDS011;5409;42.620;23.316;2022-12-26T06:03:37;2.72;;;1.25;;
10715;SDS011;5409;42.620;23.316;2022-12-26T06:06:05;2.95;;;1.25;;
10715;SDS011;5409;42.620;23.316;2022-12-26T06:08:32;1.80;;;1.58;;
10715;SDS011;5409;42.620;23.316;2022-12-26T06:11:01;1.88;;;1.17;;
10715;SDS011;5409;42.620;23.316;2022-12-26T06:13:29;1.75;;;1.05;;
10715;SDS011;5409;42.620;23.316;2022-12-26T06:15:56;1.23;;;1.13;;
10715;SDS011;5409;42.620;23.316;2022-12-26T06:18:23;1.38;;;1.25;;
10715;SDS011;5409;42.620;23.316;2022-12-26T06:20:51;1.58;;;1.33;;
10715;SDS011;5409;42.620;23.316;2022-12-26T06:23:18;1.80;;;1.10;;
10715;SDS011;5409;42.620;23.316;2022-12-26T06:25:51;3.35;;;1.40;;
10715;SDS011;5409;42.620;23.316;2022-12-26T06:28:19;1.80;;;1.10;;
10715;SDS011;5409;42.620;23.316;2022-12-26T06:30:46;1.35;;;1.25;;
10715;SDS011;5409;42.620;23.316;2022-12-26T06:33:13;1.70;;;1.50;;
10715;SDS011;5409;42.620;23.316;2022-12-26T06:35:39;2.60;;;1.80;;
10715;SDS011;5409;42.620;23.316;2022-12-26T06:38:08;4.07;;;1.90;;
10715;SDS011;5409;42.620;23.316;2022-12-26T06:40:36;4.50;;;1.90;;
10715;SDS011;5409;42.620;23.316;2022-12-26T06:43:04;1.45;;;1.10;;
10715;SDS011;5409;42.620;23.316;2022-12-26T06:45:31;1.90;;;1.17;;
10715;SDS011;5409;42.620;23.316;2022-12-26T06:47:58;1.30;;;1.20;;
10715;SDS011;5409;42.620;23.316;2022-12-26T06:50:24;1.20;;;1.10;;
10715;SDS011;5409;42.620;23.316;2022-12-26T06:52:51;1.27;;;1.17;;
10715;SDS011;5409;42.620;23.316;2022-12-26T06:55:20;5.60;;;1.23;;
10715;SDS011;5409;42.620;23.316;2022-12-26T06:57:46;5.40;;;1.52;;
10715;SDS011;5409;42.620;23.316;2022-12-26T07:00:14;2.42;;;1.90;;
10715;SDS011;5409;42.620;23.316;2022-12-26T07:02:41;1.20;;;1.10;;
10715;SDS011;5409;42.620;23.316;2022-12-26T07:05:08;1.65;;;1.40;;
10715;SDS011;5409;42.620;23.316;2022-12-26T07:07:34;3.95;;;1.50;;
10715;SDS011;5409;42.620;23.316;2022-12-26T07:10:01;2.00;;;1.30;;
10715;SDS011;5409;42.620;23.316;2022-12-26T07:12:29;7.50;;;4.75;;
10715;SDS011;5409;42.620;23.316;2022-12-26T07:14:59;9.65;;;6.97;;
10715;SDS011;5409;42.620;23.316;2022-12-26T07:17:26;8.60;;;4.78;;
10715;SDS011;5409;42.620;23.316;2022-12-26T07:19:53;6.53;;;4.07;;
10715;SDS011;5409;42.620;23.316;2022-12-26T07:22:20;8.55;;;5.00;;
10715;SDS011;5409;42.620;23.316;2022-12-26T07:24:46;9.40;;;6.05;;
10715;SDS011;5409;42.620;23.316;2022-12-26T07:27:13;5.70;;;4.55;;
10715;SDS011;5409;42.620;23.316;2022-12-26T07:29:41;14.38;;;5.65;;
10715;SDS011;5409;42.620;23.316;2022-12-26T07:32:08;10.25;;;5.72;;
10715;SDS011;5409;42.620;23.316;2022-12-26T07:34:35;6.47;;;3.97;;
10715;SDS011;5409;42.620;23.316;2022-12-26T07:37:01;4.05;;;2.60;;
10715;SDS011;5409;42.620;23.316;2022-12-26T07:39:28;2.20;;;1.50;;
10715;SDS011;5409;42.620;23.316;2022-12-26T07:41:55;2.42;;;1.60;;
10715;SDS011;5409;42.620;23.316;2022-12-26T07:44:25;1.70;;;1.55;;
10715;SDS011;5409;42.620;23.316;2022-12-26T07:46:55;1.92;;;1.75;;
10715;SDS011;5409;42.620;23.316;2022-12-26T07:49:22;4.30;;;1.70;;
10715;SDS011;5409;42.620;23.316;2022-12-26T07:51:50;3.58;;;1.90;;
10715;SDS011;5409;42.620;23.316;2022-12-26T07:54:17;4.97;;;2.03;;
10715;SDS011;5409;42.620;23.316;2022-12-26T07:56:44;4.88;;;1.90;;
10715;SDS011;5409;42.620;23.316;2022-12-26T07:59:12;2.25;;;1.88;;
10715;SDS011;5409;42.620;23.316;2022-12-26T08:01:40;3.33;;;2.50;;
10715;SDS011;5409;42.620;23.316;2022-12-26T08:04:09;2.28;;;1.92;;
10715;SDS011;5409;42.620;23.316;2022-12-26T08:06:36;5.07;;;3.67;;
10715;SDS011;5409;42.620;23.316;2022-12-26T08:09:03;6.85;;;2.70;;
10715;SDS011;5409;42.620;23.316;2022-12-26T08:11:31;14.85;;;10.80;;
10715;SDS011;5409;42.620;23.316;2022-12-26T08:14:00;10.15;;;6.28;;
10715;SDS011;5409;42.620;23.316;2022-12-26T08:16:27;15.23;;;8.20;;
10715;SDS011;5409;42.620;23.316;2022-12-26T08:18:55;12.07;;;8.18;;
10715;SDS011;5409;42.620;23.316;2022-12-26T08:21:23;13.02;;;8.65;;
10715;SDS011;5409;42.620;23.316;2022-12-26T08:23:49;13.95;;;10.00;;
10715;SDS011;5409;42.620;23.316;2022-12-26T08:26:16;8.52;;;5.10;;
10715;SDS011;5409;42.620;23.316;2022-12-26T08:28:47;8.02;;;5.03;;
10715;SDS011;5409;42.620;23.316;2022-12-26T08:31:14;10.13;;;6.35;;
10715;SDS011;5409;42.620;23.316;2022-12-26T08:33:42;13.98;;;8.82;;
10715;SDS011;5409;42.620;23.316;2022-12-26T08:36:09;16.85;;;10.85;;
10715;SDS011;5409;42.620;23.316;2022-12-26T08:38:38;22.52;;;14.07;;
10715;SDS011;5409;42.620;23.316;2022-12-26T08:41:06;27.88;;;16.08;;
10715;SDS011;5409;42.620;23.316;2022-12-26T08:43:32;21.02;;;15.18;;
10715;SDS011;5409;42.620;23.316;2022-12-26T08:46:00;29.33;;;17.73;;
10715;SDS011;5409;42.620;23.316;2022-12-26T08:48:28;24.98;;;17.38;;
10715;SDS011;5409;42.620;23.316;2022-12-26T08:50:56;28.23;;;17.45;;
10715;SDS011;5409;42.620;23.316;2022-12-26T08:53:24;24.88;;;17.08;;
10715;SDS011;5409;42.620;23.316;2022-12-26T08:55:54;25.60;;;15.35;;
10715;SDS011;5409;42.620;23.316;2022-12-26T08:58:21;22.23;;;15.05;;
10715;SDS011;5409;42.620;23.316;2022-12-26T09:00:48;22.73;;;15.88;;
10715;SDS011;5409;42.620;23.316;2022-12-26T09:03:15;21.50;;;13.23;;
10715;SDS011;5409;42.620;23.316;2022-12-26T09:05:42;30.15;;;16.38;;
10715;SDS011;5409;42.620;23.316;2022-12-26T09:08:09;25.55;;;15.68;;
10715;SDS011;5409;42.620;23.316;2022-12-26T09:10:36;23.48;;;14.82;;
10715;SDS011;5409;42.620;23.316;2022-12-26T09:13:05;20.13;;;15.18;;
10715;SDS011;5409;42.620;23.316;2022-12-26T09:15:31;24.48;;;15.45;;
10715;SDS011;5409;42.620;23.316;2022-12-26T09:17:58;25.10;;;15.82;;
10715;SDS011;5409;42.620;23.316;2022-12-26T09:20:25;23.80;;;15.57;;
10715;SDS011;5409;42.620;23.316;2022-12-26T09:22:52;22.02;;;15.63;;
10715;SDS011;5409;42.620;23.316;2022-12-26T09:25:20;22.58;;;15.48;;
10715;SDS011;5409;42.620;23.316;2022-12-26T09:27:48;25.17;;;15.38;;
10715;SDS011;5409;42.620;23.316;2022-12-26T09:30:19;23.35;;;16.10;;
10715;SDS011;5409;42.620;23.316;2022-12-26T09:32:46;26.52;;;17.27;;
10715;SDS011;5409;42.620;23.316;2022-12-26T09:35:13;23.92;;;15.63;;
10715;SDS011;5409;42.620;23.316;2022-12-26T09:37:39;29.10;;;15.80;;
10715;SDS011;5409;42.620;23.316;2022-12-26T09:40:07;22.98;;;16.13;;
10715;SDS011;5409;42.620;23.316;2022-12-26T09:42:49;24.30;;;15.73;;
10715;SDS011;5409;42.620;23.316;2022-12-26T09:45:29;24.52;;;14.70;;
10715;SDS011;5409;42.620;23.316;2022-12-26T09:48:10;23.45;;;16.17;;
10715;SDS011;5409;42.620;23.316;2022-12-26T09:50:43;21.08;;;16.13;;
10715;SDS011;5409;42.620;23.316;2022-12-26T09:53:16;21.38;;;14.43;;
10715;SDS011;5409;42.620;23.316;2022-12-26T09:55:52;21.95;;;14.50;;
10715;SDS011;5409;42.620;23.316;2022-12-26T09:58:24;24.48;;;14.80;;
10715;SDS011;5409;42.620;23.316;2022-12-26T10:00:57;22.80;;;14.95;;
10715;SDS011;5409;42.620;23.316;2022-12-26T10:03:28;21.85;;;14.95;;
10715;SDS011;5409;42.620;23.316;2022-12-26T10:06:08;20.40;;;14.57;;
10715;SDS011;5409;42.620;23.316;2022-12-26T10:08:42;23.20;;;15.07;;
10715;SDS011;5409;42.620;23.316;2022-12-26T10:11:29;18.70;;;12.93;;
10715;SDS011;5409;42.620;23.316;2022-12-26T10:14:07;19.98;;;14.05;;
10715;SDS011;5409;42.620;23.316;2022-12-26T10:16:44;20.77;;;14.57;;
10715;SDS011;5409;42.620;23.316;2022-12-26T10:19:24;19.70;;;13.85;;
10715;SDS011;5409;42.620;23.316;2022-12-26T10:22:02;18.38;;;12.82;;
10715;SDS011;5409;42.620;23.316;2022-12-26T10:24:39;15.13;;;10.98;;
10715;SDS011;5409;42.620;23.316;2022-12-26T10:27:09;17.95;;;11.85;;
10715;SDS011;5409;42.620;23.316;2022-12-26T10:29:40;17.75;;;11.73;;
10715;SDS011;5409;42.620;23.316;2022-12-26T10:32:13;16.20;;;11.35;;
10715;SDS011;5409;42.620;23.316;2022-12-26T10:34:44;17.30;;;10.85;;
10715;SDS011;5409;42.620;23.316;2022-12-26T10:37:15;13.38;;;9.80;;
10715;SDS011;5409;42.620;23.316;2022-12-26T10:39:50;13.25;;;10.20;;
10715;SDS011;5409;42.620;23.316;2022-12-26T10:42:22;15.18;;;10.70;;
10715;SDS011;5409;42.620;23.316;2022-12-26T10:44:53;13.57;;;9.90;;
10715;SDS011;5409;42.620;23.316;2022-12-26T10:47:25;14.20;;;9.45;;
10715;SDS011;5409;42.620;23.316;2022-12-26T10:49:53;13.25;;;9.82;;
10715;SDS011;5409;42.620;23.316;2022-12-26T10:52:26;12.63;;;9.75;;
10715;SDS011;5409;42.620;23.316;2022-12-26T10:54:56;14.75;;;10.63;;
10715;SDS011;5409;42.620;23.316;2022-12-26T10:57:26;12.88;;;9.65;;
10715;SDS011;5409;42.620;23.316;2022-12-26T10:59:53;12.32;;;9.18;;
10715;SDS011;5409;42.620;23.316;2022-12-26T11:02:22;16.15;;;9.65;;
10715;SDS011;5409;42.620;23.316;2022-12-26T11:05:02;13.82;;;9.68;;
10715;SDS011;5409;42.620;23.316;2022-12-26T11:07:32;13.98;;;8.98;;
10715;SDS011;5409;42.620;23.316;2022-12-26T11:10:02;13.07;;;11.68;;
10715;SDS011;5409;42.620;23.316;2022-12-26T11:12:36;14.10;;;11.40;;
10715;SDS011;5409;42.620;23.316;2022-12-26T11:15:08;15.40;;;10.45;;
10715;SDS011;5409;42.620;23.316;2022-12-26T11:17:47;13.13;;;9.52;;
10715;SDS011;5409;42.620;23.316;2022-12-26T11:20:21;13.98;;;10.27;;
10715;SDS011;5409;42.620;23.316;2022-12-26T11:22:51;18.63;;;12.48;;
10715;SDS011;5409;42.620;23.316;2022-12-26T11:25:19;16.88;;;12.75;;
10715;SDS011;5409;42.620;23.316;2022-12-26T11:27:49;17.58;;;13.88;;
10715;SDS011;5409;42.620;23.316;2022-12-26T11:30:21;16.67;;;12.60;;
10715;SDS011;5409;42.620;23.316;2022-12-26T11:33:11;14.05;;;10.63;;
10715;SDS011;5409;42.620;23.316;2022-12-26T11:35:50;14.15;;;10.10;;
10715;SDS011;5409;42.620;23.316;2022-12-26T11:38:20;12.23;;;9.07;;
10715;SDS011;5409;42.620;23.316;2022-12-26T11:41:00;12.98;;;9.13;;
10715;SDS011;5409;42.620;23.316;2022-12-26T11:43:47;12.70;;;8.73;;
10715;SDS011;5409;42.620;23.316;2022-12-26T11:46:16;13.73;;;8.35;;
10715;SDS011;5409;42.620;23.316;2022-12-26T11:48:47;12.05;;;8.52;;
10715;SDS011;5409;42.620;23.316;2022-12-26T11:51:16;10.25;;;7.80;;
10715;SDS011;5409;42.620;23.316;2022-12-26T11:56:46;12.55;;;8.07;;
10715;SDS011;5409;42.620;23.316;2022-12-26T11:59:15;11.57;;;8.27;;
10715;SDS011;5409;42.620;23.316;2022-12-26T12:01:44;13.05;;;8.52;;
10715;SDS011;5409;42.620;23.316;2022-12-26T12:04:13;12.70;;;8.77;;
10715;SDS011;5409;42.620;23.316;2022-12-26T12:06:51;12.68;;;8.82;;
10715;SDS011;5409;42.620;23.316;2022-12-26T12:09:29;12.57;;;9.13;;
10715;SDS011;5409;42.620;23.316;2022-12-26T12:12:04;14.68;;;9.30;;
10715;SDS011;5409;42.620;23.316;2022-12-26T12:14:44;14.23;;;9.18;;
10715;SDS011;5409;42.620;23.316;2022-12-26T12:17:21;12.63;;;9.55;;
10715;SDS011;5409;42.620;23.316;2022-12-26T12:19:59;14.98;;;8.82;;
10715;SDS011;5409;42.620;23.316;2022-12-26T12:25:40;13.77;;;8.93;;
10715;SDS011;5409;42.620;23.316;2022-12-26T12:28:31;12.60;;;8.13;;
10715;SDS011;5409;42.620;23.316;2022-12-26T12:31:12;10.75;;;8.10;;
10715;SDS011;5409;42.620;23.316;2022-12-26T12:33:47;14.95;;;8.55;;
10715;SDS011;5409;42.620;23.316;2022-12-26T12:36:21;14.20;;;8.48;;
10715;SDS011;5409;42.620;23.316;2022-12-26T12:39:00;11.73;;;7.47;;
10715;SDS011;5409;42.620;23.316;2022-12-26T12:44:33;15.60;;;8.80;;
10715;SDS011;5409;42.620;23.316;2022-12-26T12:47:17;12.10;;;8.13;;
10715;SDS011;5409;42.620;23.316;2022-12-26T12:49:55;12.70;;;7.30;;
10715;SDS011;5409;42.620;23.316;2022-12-26T12:52:36;12.55;;;8.05;;
10715;SDS011;5409;42.620;23.316;2022-12-26T12:55:18;16.92;;;7.93;;
10715;SDS011;5409;42.620;23.316;2022-12-26T12:58:03;16.00;;;8.43;;
10715;SDS011;5409;42.620;23.316;2022-12-26T13:00:38;12.35;;;7.70;;
10715;SDS011;5409;42.620;23.316;2022-12-26T13:03:10;18.33;;;8.05;;
10715;SDS011;5409;42.620;23.316;2022-12-26T13:05:43;11.57;;;7.20;;
10715;SDS011;5409;42.620;23.316;2022-12-26T13:08:17;13.43;;;8.27;;
10715;SDS011;5409;42.620;23.316;2022-12-26T13:10:49;12.43;;;7.82;;
10715;SDS011;5409;42.620;23.316;2022-12-26T13:13:21;12.35;;;7.03;;
10715;SDS011;5409;42.620;23.316;2022-12-26T13:15:54;12.27;;;7.88;;
10715;SDS011;5409;42.620;23.316;2022-12-26T13:18:26;11.10;;;6.65;;
10715;SDS011;5409;42.620;23.316;2022-12-26T13:20:57;7.88;;;5.80;;
10715;SDS011;5409;42.620;23.316;2022-12-26T13:23:32;6.00;;;4.22;;
10715;SDS011;5409;42.620;23.316;2022-12-26T13:26:21;3.33;;;2.78;;
10715;SDS011;5409;42.620;23.316;2022-12-26T13:28:53;5.50;;;3.60;;
10715;SDS011;5409;42.620;23.316;2022-12-26T13:31:28;6.72;;;3.45;;
10715;SDS011;5409;42.620;23.316;2022-12-26T13:33:57;11.95;;;5.43;;
10715;SDS011;5409;42.620;23.316;2022-12-26T13:36:38;4.43;;;3.35;;
10715;SDS011;5409;42.620;23.316;2022-12-26T13:42:00;10.90;;;7.15;;
10715;SDS011;5409;42.620;23.316;2022-12-26T13:47:59;4.97;;;3.80;;
10715;SDS011;5409;42.620;23.316;2022-12-26T13:50:45;5.55;;;3.50;;
10715;SDS011;5409;42.620;23.316;2022-12-26T13:53:24;2.72;;;2.38;;
10715;SDS011;5409;42.620;23.316;2022-12-26T13:55:57;2.50;;;1.83;;
10715;SDS011;5409;42.620;23.316;2022-12-26T13:58:35;2.33;;;1.58;;
10715;SDS011;5409;42.620;23.316;2022-12-26T14:01:18;1.75;;;1.52;;
10715;SDS011;5409;42.620;23.316;2022-12-26T14:06:59;2.58;;;1.50;;
10715;SDS011;5409;42.620;23.316;2022-12-26T14:09:41;1.52;;;1.42;;
10715;SDS011;5409;42.620;23.316;2022-12-26T14:12:23;3.22;;;2.20;;
10715;SDS011;5409;42.620;23.316;2022-12-26T14:15:02;3.03;;;1.83;;
10715;SDS011;5409;42.620;23.316;2022-12-26T14:17:42;18.75;;;12.48;;
10715;SDS011;5409;42.620;23.316;2022-12-26T14:20:21;2.30;;;2.10;;
10715;SDS011;5409;42.620;23.316;2022-12-26T14:23:02;4.22;;;3.08;;
10715;SDS011;5409;42.620;23.316;2022-12-26T14:25:39;4.00;;;3.15;;
10715;SDS011;5409;42.620;23.316;2022-12-26T14:28:20;2.78;;;1.88;;
10715;SDS011;5409;42.620;23.316;2022-12-26T14:30:55;3.40;;;2.58;;
10715;SDS011;5409;42.620;23.316;2022-12-26T14:33:37;7.30;;;1.98;;
10715;SDS011;5409;42.620;23.316;2022-12-26T14:36:14;3.17;;;2.38;;
10715;SDS011;5409;42.620;23.316;2022-12-26T14:38:50;4.20;;;2.30;;
10715;SDS011;5409;42.620;23.316;2022-12-26T14:41:24;4.15;;;2.25;;
10715;SDS011;5409;42.620;23.316;2022-12-26T14:44:14;2.28;;;2.00;;
10715;SDS011;5409;42.620;23.316;2022-12-26T14:46:54;2.58;;;2.08;;
10715;SDS011;5409;42.620;23.316;2022-12-26T14:49:24;3.95;;;2.17;;
10715;SDS011;5409;42.620;23.316;2022-12-26T14:58:18;4.50;;;3.30;;
10715;SDS011;5409;42.620;23.316;2022-12-26T15:04:24;2.38;;;2.15;;
10715;SDS011;5409;42.620;23.316;2022-12-26T15:07:31;2.83;;;1.70;;
10715;SDS011;5409;42.620;23.316;2022-12-26T15:16:52;1.65;;;1.55;;
10715;SDS011;5409;42.620;23.316;2022-12-26T15:25:50;1.52;;;1.25;;
10715;SDS011;5409;42.620;23.316;2022-12-26T15:34:34;1.40;;;1.30;;
10715;SDS011;5409;42.620;23.316;2022-12-26T15:37:08;1.60;;;1.35;;
10715;SDS011;5409;42.620;23.316;2022-12-26T15:39:47;2.00;;;1.48;;
10715;SDS011;5409;42.620;23.316;2022-12-26T15:42:24;1.38;;;1.08;;
10715;SDS011;5409;42.620;23.316;2022-12-26T15:45:07;1.75;;;1.25;;
10715;SDS011;5409;42.620;23.316;2022-12-26T15:47:47;18.98;;;13.52;;
10715;SDS011;5409;42.620;23.316;2022-12-26T15:50:22;3.50;;;2.30;;
10715;SDS011;5409;42.620;23.316;2022-12-26T15:52:57;1.50;;;1.40;;
10715;SDS011;5409;42.620;23.316;2022-12-26T15:55:39;1.13;;;1.10;;
10715;SDS011;5409;42.620;23.316;2022-12-26T15:58:27;2.97;;;1.75;;
10715;SDS011;5409;42.620;23.316;2022-12-26T16:01:07;4.43;;;2.50;;
10715;SDS011;5409;42.620;23.316;2022-12-26T16:03:40;2.03;;;1.65;;
10715;SDS011;5409;42.620;23.316;2022-12-26T16:06:20;2.78;;;2.00;;
10715;SDS011;5409;42.620;23.316;2022-12-26T16:09:04;2.35;;;1.90;;
10715;SDS011;5409;42.620;23.316;2022-12-26T16:11:41;3.42;;;2.30;;
10715;SDS011;5409;42.620;23.316;2022-12-26T16:14:23;1.60;;;1.35;;
10715;SDS011;5409;42.620;23.316;2022-12-26T16:16:52;6.57;;;5.15;;